createdAt,value
2018-07-26T00:00:29.588Z,17.2
2018-07-26T00:01:19.662Z,17.2
2018-07-26T00:02:09.747Z,17.2
2018-07-26T00:02:59.538Z,17.2
2018-07-26T00:03:49.422Z,17.1
2018-07-26T00:04:39.362Z,17.2
2018-07-26T00:05:30.014Z,17.1
2018-07-26T00:06:19.484Z,17.1
2018-07-26T00:07:09.839Z,17.1
2018-07-26T00:11:20.490Z,16.9
2018-07-26T00:13:50.626Z,16.9
2018-07-26T00:14:40.693Z,16.9
2018-07-26T00:15:30.516Z,16.9
2018-07-26T00:16:20.822Z,16.9
2018-07-26T00:17:10.617Z,16.9
2018-07-26T00:18:00.680Z,16.9
2018-07-26T00:18:50.768Z,16.9
2018-07-26T00:24:41.487Z,17.1
2018-07-26T00:25:31.513Z,17.1
2018-07-26T00:26:21.630Z,17.1
2018-07-26T00:27:11.119Z,17.1
2018-07-26T00:28:00.874Z,17.1
2018-07-26T00:28:51.226Z,17.2
2018-07-26T00:29:41.570Z,17.3
2018-07-26T00:30:31.916Z,17.3
2018-07-26T00:31:21.724Z,17.3
2018-07-26T00:32:12.080Z,17.3
2018-07-26T00:33:01.829Z,17.3
2018-07-26T00:33:51.610Z,17.4
2018-07-26T00:34:42.244Z,17.4
2018-07-26T00:35:31.995Z,17.4
2018-07-26T00:36:22.344Z,17.4
2018-07-26T00:37:12.436Z,17.4
2018-07-26T00:38:02.508Z,17.4
2018-07-26T00:38:52.298Z,17.4
2018-07-26T00:39:42.340Z,17.4
2018-07-26T00:40:32.680Z,17.4
2018-07-26T00:41:23.059Z,17.5
2018-07-26T00:42:12.567Z,17.5
2018-07-26T00:43:02.333Z,17.6
2018-07-26T00:43:52.930Z,17.6
2018-07-26T00:44:42.186Z,17.6
2018-07-26T00:45:33.062Z,17.6
2018-07-26T00:46:23.162Z,17.6
2018-07-26T00:47:13.195Z,17.6
2018-07-26T00:48:03.019Z,17.6
2018-07-26T00:48:54.056Z,17.6
2018-07-26T00:49:42.852Z,17.6
2018-07-26T00:50:33.470Z,17.6
2018-07-26T00:51:23.258Z,17.7
2018-07-26T00:52:13.590Z,17.7
2018-07-26T00:53:03.375Z,17.7
2018-07-26T00:53:53.159Z,17.7
2018-07-26T00:54:43.491Z,17.7
2018-07-26T00:55:33.810Z,17.7
2018-07-26T00:56:23.888Z,17.7
2018-07-26T00:57:13.691Z,17.7
2018-07-26T00:58:04.009Z,17.8
2018-07-26T00:58:54.090Z,17.8
2018-07-26T00:59:43.886Z,17.8
2018-07-26T01:00:34.252Z,17.7
2018-07-26T01:01:23.732Z,17.7
2018-07-26T01:02:13.819Z,17.7
2018-07-26T01:03:04.401Z,17.8
2018-07-26T01:03:53.640Z,17.8
2018-07-26T01:04:44.531Z,17.8
2018-07-26T01:05:34.076Z,17.8
2018-07-26T01:06:24.678Z,17.8
2018-07-26T01:07:14.709Z,17.8
2018-07-26T01:08:04.828Z,17.8
2018-07-26T01:08:54.008Z,17.8
2018-07-26T01:09:44.877Z,17.8
2018-07-26T01:10:34.720Z,17.8
2018-07-26T01:11:24.806Z,17.8
2018-07-26T01:12:15.113Z,17.9
2018-07-26T01:13:04.661Z,17.8
2018-07-26T01:13:55.300Z,17.9
2018-07-26T01:14:45.310Z,17.9
2018-07-26T01:15:35.119Z,17.9
2018-07-26T01:16:24.593Z,17.9
2018-07-26T01:17:15.525Z,17.9
2018-07-26T01:18:05.018Z,17.9
2018-07-26T01:18:55.345Z,17.9
2018-07-26T01:19:45.687Z,17.9
2018-07-26T01:20:35.789Z,17.9
2018-07-26T01:21:25.851Z,17.9
2018-07-26T01:22:15.873Z,17.9
2018-07-26T01:23:05.962Z,17.9
2018-07-26T01:23:56.049Z,17.9
2018-07-26T01:24:46.141Z,17.9
2018-07-26T01:25:36.134Z,17.9
2018-07-26T01:26:25.655Z,17.9
2018-07-26T01:27:16.348Z,17.9
2018-07-26T01:28:05.771Z,17.9
2018-07-26T01:28:56.126Z,18
2018-07-26T01:29:45.987Z,18
2018-07-26T01:30:36.051Z,18
2018-07-26T01:31:26.299Z,18
2018-07-26T01:32:15.617Z,17.9
2018-07-26T01:33:05.678Z,18
2018-07-26T01:33:56.067Z,17.9
2018-07-26T01:34:46.617Z,17.9
2018-07-26T01:35:36.441Z,17.9
2018-07-26T01:36:25.946Z,17.9
2018-07-26T01:37:17.038Z,17.9
2018-07-26T01:38:07.087Z,17.9
2018-07-26T01:38:56.873Z,17.9
2018-07-26T01:39:46.394Z,17.9
2018-07-26T01:40:37.004Z,17.9
2018-07-26T01:41:26.539Z,17.9
2018-07-26T01:42:16.747Z,17.9
2018-07-26T01:43:06.703Z,17.9
2018-07-26T01:43:57.069Z,17.9
2018-07-26T01:44:47.169Z,17.9
2018-07-26T01:45:37.198Z,17.9
2018-07-26T01:46:27.245Z,17.9
2018-07-26T01:47:17.320Z,17.9
2018-07-26T01:48:07.643Z,18
2018-07-26T01:48:57.977Z,17.9
2018-07-26T01:49:47.722Z,17.9
2018-07-26T01:50:37.853Z,17.9
2018-07-26T01:51:28.137Z,17.9
2018-07-26T01:52:17.882Z,17.9
2018-07-26T01:53:08.296Z,17.9
2018-07-26T01:53:58.039Z,17.9
2018-07-26T01:54:47.869Z,18
2018-07-26T01:55:38.433Z,17.9
2018-07-26T01:56:28.522Z,18
2018-07-26T01:57:18.275Z,18
2018-07-26T01:58:08.637Z,18
2018-07-26T01:58:58.448Z,17.9
2018-07-26T01:59:48.739Z,17.9
2018-07-26T02:00:38.809Z,17.9
2018-07-26T02:01:28.885Z,17.9
2018-07-26T02:02:18.948Z,18
2018-07-26T02:03:09.036Z,18
2018-07-26T02:03:59.066Z,17.9
2018-07-26T02:04:49.162Z,17.9
2018-07-26T02:05:38.908Z,17.9
2018-07-26T02:06:28.735Z,17.9
2018-07-26T02:07:19.078Z,17.9
2018-07-26T02:08:09.440Z,17.9
2018-07-26T02:08:58.942Z,17.9
2018-07-26T02:09:49.274Z,17.9
2018-07-26T02:10:38.806Z,17.9
2018-07-26T02:11:29.132Z,17.9
2018-07-26T02:12:19.151Z,17.9
2018-07-26T02:13:09.797Z,17.9
2018-07-26T02:13:59.863Z,17.8
2018-07-26T02:14:49.684Z,17.8
2018-07-26T02:15:39.694Z,17.8
2018-07-26T02:16:29.748Z,17.8
2018-07-26T02:17:20.149Z,17.8
2018-07-26T02:18:10.182Z,17.8
2018-07-26T02:19:00.253Z,17.8
2018-07-26T02:19:50.315Z,17.8
2018-07-26T02:20:40.374Z,17.7
2018-07-26T02:21:29.872Z,17.7
2018-07-26T02:22:20.221Z,17.7
2018-07-26T02:23:10.010Z,17.7
2018-07-26T02:24:00.617Z,17.7
2018-07-26T02:24:50.762Z,17.7
2018-07-26T02:25:40.502Z,17.7
2018-07-26T02:26:30.827Z,17.7
2018-07-26T02:27:20.864Z,17.6
2018-07-26T02:28:10.460Z,17.6
2018-07-26T02:29:00.728Z,17.6
2018-07-26T02:29:50.041Z,17.6
2018-07-26T02:30:40.374Z,17.6
2018-07-26T02:31:30.449Z,17.6
2018-07-26T02:32:20.012Z,17.6
2018-07-26T02:33:10.364Z,17.6
2018-07-26T02:34:00.441Z,17.6
2018-07-26T02:34:50.528Z,17.6
2018-07-26T02:35:40.762Z,17.6
2018-07-26T02:36:31.100Z,17.5
2018-07-26T02:37:20.883Z,17.5
2018-07-26T02:38:11.261Z,17.4
2018-07-26T02:39:01.019Z,17.4
2018-07-26T02:39:50.791Z,17.4
2018-07-26T02:40:41.937Z,17.4
2018-07-26T02:41:31.987Z,17.4
2018-07-26T02:42:22.063Z,17.3
2018-07-26T02:43:12.102Z,17.3
2018-07-26T02:44:01.606Z,17.3
2018-07-26T02:44:51.959Z,17.2
2018-07-26T02:45:42.031Z,17.3
2018-07-26T02:46:32.334Z,17.2
2018-07-26T02:47:22.145Z,17.1
2018-07-26T02:48:11.684Z,17.1
2018-07-26T02:49:02.016Z,17.1
2018-07-26T02:50:42.677Z,16.9
2018-07-26T02:51:32.448Z,16.9
2018-07-26T02:52:22.260Z,16.9
2018-07-26T02:53:12.893Z,16.8
2018-07-26T02:54:02.368Z,16.8
2018-07-26T02:54:52.995Z,16.8
2018-07-26T02:55:42.804Z,16.8
2018-07-26T02:56:32.560Z,16.8
2018-07-26T02:57:22.349Z,16.6
2018-07-26T02:58:12.406Z,16.6
2018-07-26T02:59:02.820Z,16.6
2018-07-26T02:59:53.377Z,16.5
2018-07-26T03:00:43.182Z,16.5
2018-07-26T03:01:32.642Z,16.4
2018-07-26T03:02:23.598Z,16.4
2018-07-26T03:03:13.657Z,16.4
2018-07-26T03:04:03.141Z,16.4
2018-07-26T03:04:53.460Z,16.3
2018-07-26T03:05:43.075Z,16.3
2018-07-26T03:06:33.604Z,16.3
2018-07-26T03:07:23.664Z,16.3
2018-07-26T03:08:13.482Z,16.3
2018-07-26T03:09:04.100Z,16.3
2018-07-26T03:09:54.160Z,16.2
2018-07-26T03:10:43.649Z,16.2
2018-07-26T03:11:34.008Z,16.1
2018-07-26T03:12:24.039Z,16.2
2018-07-26T03:13:14.212Z,16.1
2018-07-26T03:14:04.218Z,16.1
2018-07-26T03:14:54.526Z,16.1
2018-07-26T03:15:44.394Z,16.1
2018-07-26T03:16:34.691Z,16.1
2018-07-26T03:17:24.431Z,16.1
2018-07-26T03:18:14.797Z,16.1
2018-07-26T03:19:04.596Z,16.1
2018-07-26T03:19:54.648Z,16
2018-07-26T03:20:44.426Z,16.1
2018-07-26T03:21:35.112Z,16.1
2018-07-26T03:22:24.851Z,16.1
2018-07-26T03:23:14.905Z,16
2018-07-26T03:24:04.969Z,16
2018-07-26T03:24:55.046Z,16
2018-07-26T03:25:45.196Z,16
2018-07-26T03:26:35.148Z,16
2018-07-26T03:27:25.513Z,16
2018-07-26T03:28:14.961Z,16
2018-07-26T03:29:05.056Z,15.9
2018-07-26T03:29:55.674Z,15.9
2018-07-26T03:30:45.792Z,15.9
2018-07-26T03:31:35.242Z,15.9
2018-07-26T03:32:25.011Z,15.9
2018-07-26T03:33:15.668Z,15.9
2018-07-26T03:34:05.983Z,16
2018-07-26T03:34:56.045Z,16
2018-07-26T03:35:45.575Z,16
2018-07-26T03:36:36.225Z,16
2018-07-26T03:37:26.220Z,16
2018-07-26T03:38:16.337Z,15.9
2018-07-26T03:39:06.355Z,15.9
2018-07-26T03:39:56.434Z,16
2018-07-26T03:40:45.914Z,16
2018-07-26T03:41:36.625Z,15.9
2018-07-26T03:42:26.634Z,16
2018-07-26T03:43:16.685Z,16
2018-07-26T03:44:06.751Z,16.1
2018-07-26T03:44:56.528Z,16.1
2018-07-26T03:45:46.845Z,16.1
2018-07-26T03:46:36.937Z,16.1
2018-07-26T03:47:26.699Z,16.1
2018-07-26T03:48:16.498Z,16.1
2018-07-26T03:49:06.550Z,16.1
2018-07-26T03:49:56.615Z,16.1
2018-07-26T03:50:47.080Z,16.1
2018-07-26T03:51:37.071Z,16.1
2018-07-26T03:52:27.390Z,16.1
2018-07-26T03:53:16.904Z,16.1
2018-07-26T03:54:07.525Z,16.1
2018-07-26T03:54:57.575Z,16.1
2018-07-26T03:55:47.690Z,16.1
2018-07-26T03:56:37.430Z,16.1
2018-07-26T03:57:27.752Z,16.1
2018-07-26T03:58:17.830Z,16.1
2018-07-26T03:59:07.614Z,16.2
2018-07-26T03:59:57.443Z,16.2
2018-07-26T04:00:48.036Z,16.2
2018-07-26T04:01:38.080Z,16.3
2018-07-26T04:02:28.140Z,16.3
2018-07-26T04:03:18.703Z,16.3
2018-07-26T04:04:08.310Z,16.3
2018-07-26T04:04:58.385Z,16.3
2018-07-26T04:05:48.407Z,16.3
2018-07-26T04:06:38.470Z,16.3
2018-07-26T04:07:27.987Z,16.3
2018-07-26T04:08:18.319Z,16.3
2018-07-26T04:09:08.671Z,16.4
2018-07-26T04:09:58.456Z,16.4
2018-07-26T04:10:47.953Z,16.4
2018-07-26T04:11:38.834Z,16.4
2018-07-26T04:12:28.626Z,16.5
2018-07-26T04:13:18.692Z,16.5
2018-07-26T04:14:09.594Z,16.6
2018-07-26T04:14:58.539Z,16.6
2018-07-26T04:15:49.152Z,16.7
2018-07-26T04:16:38.963Z,16.7
2018-07-26T04:17:28.759Z,16.7
2018-07-26T04:18:19.079Z,16.8
2018-07-26T04:19:09.414Z,16.8
2018-07-26T04:19:59.838Z,16.8
2018-07-26T04:20:49.583Z,16.8
2018-07-26T04:21:38.782Z,16.8
2018-07-26T04:22:29.644Z,16.8
2018-07-26T04:23:19.717Z,16.9
2018-07-26T04:24:09.804Z,16.9
2018-07-26T04:24:59.560Z,16.9
2018-07-26T04:25:49.169Z,16.9
2018-07-26T04:26:39.238Z,16.9
2018-07-26T04:29:10.212Z,17.1
2018-07-26T04:29:59.956Z,17.1
2018-07-26T04:30:49.494Z,17.1
2018-07-26T04:31:40.168Z,17.1
2018-07-26T04:32:30.462Z,17.1
2018-07-26T04:33:20.546Z,17.1
2018-07-26T04:34:10.598Z,17.1
2018-07-26T04:35:00.639Z,17.1
2018-07-26T04:35:50.141Z,17.1
2018-07-26T04:36:39.749Z,17.1
2018-07-26T04:37:30.819Z,17.2
2018-07-26T04:38:20.883Z,17.2
2018-07-26T04:39:10.486Z,17.3
2018-07-26T04:40:00.738Z,17.3
2018-07-26T04:40:50.524Z,17.3
2018-07-26T04:41:41.142Z,17.3
2018-07-26T04:42:30.651Z,17.3
2018-07-26T04:43:21.030Z,17.4
2018-07-26T04:44:11.348Z,17.4
2018-07-26T04:45:01.396Z,17.4
2018-07-26T04:45:51.177Z,17.5
2018-07-26T04:46:40.961Z,17.5
2018-07-26T04:47:31.110Z,17.6
2018-07-26T04:48:21.661Z,17.6
2018-07-26T04:49:11.430Z,17.6
2018-07-26T04:50:01.769Z,17.8
2018-07-26T04:50:51.352Z,17.8
2018-07-26T04:51:41.911Z,17.9
2018-07-26T04:52:31.731Z,17.9
2018-07-26T04:53:21.748Z,18
2018-07-26T04:54:12.188Z,18.1
2018-07-26T04:55:02.168Z,18.1
2018-07-26T04:55:51.935Z,18.1
2018-07-26T04:56:42.297Z,18.1
2018-07-26T04:57:32.373Z,18.3
2018-07-26T04:58:21.853Z,18.3
2018-07-26T04:59:12.467Z,18.4
2018-07-26T05:00:02.002Z,18.4
2018-07-26T05:00:52.340Z,18.4
2018-07-26T05:01:42.371Z,18.4
2018-07-26T05:02:32.464Z,18.4
2018-07-26T05:03:22.232Z,18.5
2018-07-26T05:04:12.565Z,18.4
2018-07-26T05:05:02.946Z,18.4
2018-07-26T05:05:52.720Z,18.5
2018-07-26T05:06:42.845Z,18.5
2018-07-26T05:07:32.557Z,18.5
2018-07-26T05:08:22.912Z,18.6
2018-07-26T05:09:12.705Z,18.6
2018-07-26T05:10:03.050Z,18.8
2018-07-26T05:10:53.095Z,18.9
2018-07-26T05:11:43.217Z,19
2018-07-26T05:12:33.570Z,19.1
2018-07-26T05:13:23.616Z,19.1
2018-07-26T05:14:13.073Z,19.1
2018-07-26T05:15:17.602Z,19
2018-07-26T05:15:53.498Z,18.9
2018-07-26T05:16:43.553Z,18.9
2018-07-26T05:17:33.883Z,19.1
2018-07-26T05:18:23.895Z,19.2
2018-07-26T05:19:14.828Z,19.2
2018-07-26T05:20:03.828Z,19.3
2018-07-26T05:20:53.310Z,19.3
2018-07-26T05:21:44.193Z,19.3
2018-07-26T05:22:33.445Z,19.4
2018-07-26T05:23:24.303Z,19.4
2018-07-26T05:24:14.104Z,19.6
2018-07-26T05:25:04.445Z,19.6
2018-07-26T05:25:54.504Z,19.6
2018-07-26T05:26:44.316Z,19.6
2018-07-26T05:27:34.378Z,19.7
2018-07-26T05:28:24.427Z,19.6
2018-07-26T05:29:14.783Z,19.7
2018-07-26T05:30:04.827Z,19.8
2018-07-26T05:30:54.597Z,19.9
2018-07-26T05:31:44.727Z,19.9
2018-07-26T05:32:35.029Z,20.1
2018-07-26T05:33:24.838Z,20.1
2018-07-26T05:34:15.149Z,20.1
2018-07-26T05:35:05.259Z,20.1
2018-07-26T05:35:55.012Z,20.1
2018-07-26T05:36:45.079Z,20
2018-07-26T05:37:35.188Z,20
2018-07-26T05:38:25.506Z,19.9
2018-07-26T05:39:15.269Z,19.8
2018-07-26T05:40:05.613Z,19.8
2018-07-26T05:40:55.661Z,19.8
2018-07-26T05:41:45.776Z,19.9
2018-07-26T05:42:35.248Z,20.1
2018-07-26T05:43:25.889Z,20.3
2018-07-26T05:44:15.649Z,20.4
2018-07-26T05:45:05.527Z,20.6
2018-07-26T05:45:56.048Z,20.5
2018-07-26T05:46:45.593Z,20.6
2018-07-26T05:47:36.213Z,20.6
2018-07-26T05:48:25.670Z,20.8
2018-07-26T05:49:15.780Z,20.7
2018-07-26T05:50:06.378Z,20.7
2018-07-26T05:50:55.808Z,20.6
2018-07-26T05:51:45.971Z,20.7
2018-07-26T05:52:36.615Z,21
2018-07-26T05:53:26.776Z,21.1
2018-07-26T05:54:16.742Z,21.1
2018-07-26T05:55:06.788Z,21.1
2018-07-26T05:56:46.344Z,21.1
2018-07-26T05:58:26.724Z,21.3
2018-07-26T06:00:07.419Z,20.9
2018-07-26T06:00:57.188Z,21.2
2018-07-26T06:01:46.959Z,21.3
2018-07-26T06:02:37.322Z,21.3
2018-07-26T06:03:27.107Z,21.3
2018-07-26T06:04:17.495Z,21.3
2018-07-26T06:05:07.234Z,21.4
2018-07-26T06:05:57.307Z,21.7
2018-07-26T06:06:47.376Z,21.7
2018-07-26T06:07:37.713Z,21.9
2018-07-26T06:08:27.515Z,21.8
2018-07-26T06:09:17.849Z,21.9
2018-07-26T06:10:07.899Z,21.8
2018-07-26T06:10:57.951Z,21.6
2018-07-26T06:11:47.737Z,21.6
2018-07-26T06:12:37.806Z,21.5
2018-07-26T06:13:28.141Z,21.4
2018-07-26T06:14:18.207Z,21.5
2018-07-26T06:15:08.282Z,21.6
2018-07-26T06:15:58.356Z,21.8
2018-07-26T06:16:48.433Z,21.8
2018-07-26T06:17:38.488Z,21.8
2018-07-26T06:18:28.269Z,22
2018-07-26T06:19:18.374Z,22.2
2018-07-26T06:20:08.686Z,22.5
2018-07-26T06:20:58.768Z,22.5
2018-07-26T06:21:48.533Z,22.5
2018-07-26T06:22:38.619Z,22.6
2018-07-26T06:23:28.921Z,22.8
2018-07-26T06:24:19.071Z,22.5
2018-07-26T06:25:09.089Z,22.2
2018-07-26T06:25:58.351Z,21.9
2018-07-26T06:26:48.903Z,22.1
2018-07-26T06:27:38.966Z,22
2018-07-26T06:28:29.032Z,21.9
2018-07-26T06:29:19.372Z,21.9
2018-07-26T06:30:09.465Z,22
2018-07-26T06:30:59.490Z,21.9
2018-07-26T06:31:49.343Z,22.2
2018-07-26T06:32:39.612Z,22.3
2018-07-26T06:33:30.056Z,22.4
2018-07-26T06:34:19.505Z,22.6
2018-07-26T06:35:09.552Z,22.7
2018-07-26T06:35:59.899Z,22.7
2018-07-26T06:36:49.677Z,22.6
2018-07-26T06:37:40.045Z,22.6
2018-07-26T06:38:29.802Z,23
2018-07-26T06:39:19.888Z,22.9
2018-07-26T06:40:09.957Z,22.8
2018-07-26T06:41:00.284Z,22.5
2018-07-26T06:41:50.348Z,21.9
2018-07-26T06:42:40.148Z,21.8
2018-07-26T06:43:30.488Z,22.1
2018-07-26T06:44:19.953Z,22.3
2018-07-26T06:45:10.139Z,22.7
2018-07-26T06:46:00.398Z,22.9
2018-07-26T06:46:50.451Z,23.3
2018-07-26T06:47:40.803Z,23.3
2018-07-26T06:48:30.632Z,23.1
2018-07-26T06:49:20.628Z,23.1
2018-07-26T06:50:10.719Z,23
2018-07-26T06:51:00.583Z,22.9
2018-07-26T06:51:50.590Z,23.2
2018-07-26T06:52:40.051Z,23.6
2018-07-26T06:53:31.231Z,23.8
2018-07-26T06:54:21.304Z,23.7
2018-07-26T06:55:11.078Z,23.5
2018-07-26T06:56:00.871Z,23.8
2018-07-26T06:56:51.227Z,24
2018-07-26T06:57:40.735Z,24.1
2018-07-26T06:58:31.607Z,24.3
2018-07-26T06:59:21.136Z,24.4
2018-07-26T07:00:11.733Z,24.4
2018-07-26T07:01:01.055Z,24.2
2018-07-26T07:01:51.867Z,23.9
2018-07-26T07:02:41.956Z,23.9
2018-07-26T07:03:32.007Z,24
2018-07-26T07:04:22.067Z,24.2
2018-07-26T07:05:12.159Z,24.3
2018-07-26T07:06:02.190Z,24.3
2018-07-26T07:06:51.975Z,24.4
2018-07-26T07:07:42.034Z,24.5
2018-07-26T07:08:32.374Z,24.4
2018-07-26T07:09:22.180Z,24.8
2018-07-26T07:10:12.438Z,24.9
2018-07-26T07:11:02.104Z,24.8
2018-07-26T07:11:52.087Z,24.9
2018-07-26T07:12:42.249Z,25.2
2018-07-26T07:13:32.518Z,25.4
2018-07-26T07:14:22.615Z,25.4
2018-07-26T07:15:12.639Z,25.1
2018-07-26T07:16:02.990Z,25.3
2018-07-26T07:16:53.033Z,25.1
2018-07-26T07:17:43.086Z,25.2
2018-07-26T07:18:32.399Z,24.9
2018-07-26T07:19:22.928Z,25.3
2018-07-26T07:20:13.315Z,25.6
2018-07-26T07:21:03.135Z,25.3
2018-07-26T07:21:53.406Z,25.3
2018-07-26T07:22:43.503Z,25.4
2018-07-26T07:23:33.013Z,25.7
2018-07-26T07:24:23.345Z,25.8
2018-07-26T07:25:13.667Z,25.6
2018-07-26T07:26:03.774Z,25.2
2018-07-26T07:26:53.806Z,25.3
2018-07-26T07:27:43.823Z,25.8
2018-07-26T07:28:33.456Z,26
2018-07-26T07:29:23.983Z,26
2018-07-26T07:30:13.799Z,25.7
2018-07-26T07:31:03.850Z,25.7
2018-07-26T07:31:54.235Z,25.8
2018-07-26T07:32:43.977Z,25.3
2018-07-26T07:33:34.369Z,24.9
2018-07-26T07:34:24.391Z,25.3
2018-07-26T07:35:14.149Z,25.1
2018-07-26T07:36:03.483Z,24.5
2018-07-26T07:36:54.093Z,24.6
2018-07-26T07:37:44.654Z,24.8
2018-07-26T07:38:34.427Z,25.1
2018-07-26T07:39:24.510Z,25.5
2018-07-26T07:40:14.881Z,25.6
2018-07-26T07:41:04.906Z,25.9
2018-07-26T07:41:55.078Z,25.9
2018-07-26T07:42:44.471Z,26.3
2018-07-26T07:43:34.529Z,26.3
2018-07-26T07:44:25.143Z,26.3
2018-07-26T07:45:14.935Z,26.4
2018-07-26T07:46:05.051Z,26.3
2018-07-26T07:46:55.402Z,26.3
2018-07-26T07:47:46.345Z,25.3
2018-07-26T07:48:35.207Z,24.9
2018-07-26T07:49:25.578Z,25.1
2018-07-26T07:50:15.614Z,25.1
2018-07-26T07:51:05.682Z,25.5
2018-07-26T07:51:55.460Z,25.9
2018-07-26T07:52:45.924Z,26.4
2018-07-26T07:53:35.877Z,26.8
2018-07-26T07:54:25.954Z,26.7
2018-07-26T07:55:15.772Z,26.4
2018-07-26T07:56:06.094Z,26.3
2018-07-26T07:56:56.168Z,26.4
2018-07-26T07:57:45.950Z,26.6
2018-07-26T07:58:36.253Z,26.7
2018-07-26T07:59:26.313Z,26.9
2018-07-26T08:00:15.857Z,27.2
2018-07-26T08:01:06.442Z,27.4
2018-07-26T08:01:55.399Z,27.6
2018-07-26T08:02:46.604Z,27.3
2018-07-26T08:03:36.626Z,27.1
2018-07-26T08:04:26.140Z,26.8
2018-07-26T08:05:17.219Z,26.5
2018-07-26T08:06:06.606Z,26.4
2018-07-26T08:06:56.928Z,26.7
2018-07-26T08:07:46.956Z,27.1
2018-07-26T08:08:37.042Z,26.6
2018-07-26T08:09:26.811Z,26.3
2018-07-26T08:10:16.341Z,26.6
2018-07-26T08:11:07.010Z,26.8
2018-07-26T08:11:57.334Z,26.5
2018-07-26T08:12:46.897Z,26.3
2018-07-26T08:13:37.171Z,26.6
2018-07-26T08:14:27.214Z,26.8
2018-07-26T08:15:17.251Z,26.5
2018-07-26T08:16:07.593Z,26.7
2018-07-26T08:16:57.505Z,26.3
2018-07-26T08:17:47.785Z,26.2
2018-07-26T08:18:37.802Z,26.3
2018-07-26T08:19:27.600Z,26.1
2018-07-26T08:20:17.920Z,26.7
2018-07-26T08:21:07.735Z,27
2018-07-26T08:21:58.053Z,26.9
2018-07-26T08:22:47.857Z,26.8
2018-07-26T08:23:37.907Z,27.1
2018-07-26T08:24:28.009Z,27.6
2018-07-26T08:25:17.492Z,27.9
2018-07-26T08:26:08.404Z,27.6
2018-07-26T08:26:57.907Z,27.4
2018-07-26T08:27:48.519Z,27.3
2018-07-26T08:28:38.572Z,27.4
2018-07-26T08:29:28.427Z,27.9
2018-07-26T08:30:18.446Z,28.2
2018-07-26T08:31:08.777Z,28.6
2018-07-26T08:31:58.569Z,28.6
2018-07-26T08:32:48.614Z,28.3
2018-07-26T08:33:38.969Z,28.3
2018-07-26T08:34:28.556Z,28.3
2018-07-26T08:35:18.837Z,28.3
2018-07-26T08:36:09.168Z,27.3
2018-07-26T08:36:58.676Z,27.3
2018-07-26T08:37:49.294Z,27.1
2018-07-26T08:38:39.338Z,26.8
2018-07-26T08:39:29.426Z,27.1
2018-07-26T08:40:19.478Z,26.4
2018-07-26T08:41:10.222Z,26
2018-07-26T08:41:58.860Z,25.9
2018-07-26T08:42:49.110Z,25.8
2018-07-26T08:43:39.712Z,25.9
2018-07-26T08:44:29.784Z,26.5
2018-07-26T08:45:19.882Z,26.6
2018-07-26T08:46:09.907Z,26.9
2018-07-26T08:46:59.968Z,27.6
2018-07-26T08:47:50.046Z,28.1
2018-07-26T08:48:40.126Z,28.1
2018-07-26T08:49:30.183Z,28
2018-07-26T08:50:19.966Z,28.1
2018-07-26T08:51:10.325Z,28.4
2018-07-26T08:52:00.105Z,28.8
2018-07-26T08:52:50.436Z,28.7
2018-07-26T08:53:40.229Z,28.2
2018-07-26T08:54:30.286Z,28
2018-07-26T08:55:20.397Z,27.9
2018-07-26T08:56:10.445Z,27.4
2018-07-26T08:57:00.487Z,27
2018-07-26T08:57:50.574Z,26.7
2018-07-26T08:58:40.895Z,26.4
2018-07-26T08:59:30.961Z,26.3
2018-07-26T09:00:20.461Z,26.1
2018-07-26T09:01:11.624Z,26.1
2018-07-26T09:02:00.618Z,26.9
2018-07-26T09:02:50.790Z,27.3
2018-07-26T09:03:41.306Z,27.9
2018-07-26T09:04:31.381Z,28.1
2018-07-26T09:05:21.156Z,28.2
2018-07-26T09:06:11.222Z,27.6
2018-07-26T09:07:01.344Z,27.1
2018-07-26T09:07:51.616Z,26.6
2018-07-26T09:08:41.177Z,26.3
2018-07-26T09:09:31.756Z,25.8
2018-07-26T09:10:21.809Z,25.7
2018-07-26T09:11:11.660Z,25.7
2018-07-26T09:12:01.404Z,25.3
2018-07-26T09:12:52.009Z,25.6
2018-07-26T09:13:42.265Z,26
2018-07-26T09:14:32.146Z,26.2
2018-07-26T09:15:22.198Z,26.2
2018-07-26T09:16:12.253Z,26.1
2018-07-26T09:17:02.076Z,26
2018-07-26T09:17:51.701Z,26.2
2018-07-26T09:18:42.481Z,26
2018-07-26T09:19:32.691Z,26.2
2018-07-26T09:20:22.560Z,26.4
2018-07-26T09:21:12.165Z,26.8
2018-07-26T09:22:02.437Z,26.8
2018-07-26T09:22:52.805Z,27.1
2018-07-26T09:23:42.819Z,27.2
2018-07-26T09:24:33.422Z,27.6
2018-07-26T09:25:22.700Z,28.2
2018-07-26T09:26:13.234Z,28.3
2018-07-26T09:27:03.088Z,28.6
2018-07-26T09:27:53.160Z,28.7
2018-07-26T09:28:43.218Z,28.9
2018-07-26T09:29:33.015Z,29
2018-07-26T09:30:23.349Z,28.6
2018-07-26T09:31:13.430Z,28.9
2018-07-26T09:32:03.236Z,28.8
2018-07-26T09:32:53.725Z,28.7
2018-07-26T09:33:43.645Z,29
2018-07-26T09:34:33.713Z,29.3
2018-07-26T09:35:24.014Z,29.6
2018-07-26T09:36:13.823Z,29.6
2018-07-26T09:37:03.875Z,29.3
2018-07-26T09:37:53.665Z,28.9
2018-07-26T09:38:43.992Z,29.3
2018-07-26T09:39:34.054Z,29
2018-07-26T09:40:23.902Z,28.8
2018-07-26T09:41:14.759Z,28.8
2018-07-26T09:42:03.997Z,28.8
2018-07-26T09:42:53.791Z,29.4
2018-07-26T09:43:44.107Z,29.4
2018-07-26T09:44:34.184Z,29.5
2018-07-26T09:45:24.546Z,29.5
2018-07-26T09:46:14.310Z,29.6
2018-07-26T09:47:04.388Z,29.5
2018-07-26T09:47:54.175Z,28.7
2018-07-26T09:48:44.820Z,28.7
2018-07-26T09:49:34.044Z,29.3
2018-07-26T09:50:24.916Z,29.5
2018-07-26T09:51:14.710Z,30
2018-07-26T09:52:05.051Z,29.6
2018-07-26T09:52:54.841Z,29.1
2018-07-26T09:53:45.166Z,29.4
2018-07-26T09:54:35.211Z,29.8
2018-07-26T09:55:25.030Z,30.4
2018-07-26T09:56:15.363Z,30.4
2018-07-26T09:57:04.914Z,30.6
2018-07-26T09:57:55.500Z,30.9
2018-07-26T09:58:44.735Z,31.5
2018-07-26T09:59:35.724Z,31.6
2018-07-26T10:00:25.465Z,30.9
2018-07-26T10:01:15.530Z,30.3
2018-07-26T10:02:05.814Z,30.6
2018-07-26T10:02:55.628Z,30.9
2018-07-26T10:03:45.948Z,30.7
2018-07-26T10:04:35.451Z,30.8
2018-07-26T10:05:26.104Z,31
2018-07-26T10:06:15.855Z,31.2
2018-07-26T10:07:06.200Z,31.4
2018-07-26T10:07:55.441Z,31.4
2018-07-26T10:08:46.068Z,31.6
2018-07-26T10:09:36.436Z,31.5
2018-07-26T10:10:26.222Z,31.4
2018-07-26T10:11:16.533Z,31.8
2018-07-26T10:12:06.317Z,31.5
2018-07-26T10:12:56.680Z,32
2018-07-26T10:13:46.723Z,31.9
2018-07-26T10:14:36.539Z,31.9
2018-07-26T10:15:26.600Z,32.3
2018-07-26T10:16:16.925Z,32.1
2018-07-26T10:17:07.015Z,32
2018-07-26T10:17:57.065Z,32.4
2018-07-26T10:18:47.114Z,32.1
2018-07-26T10:19:37.190Z,31.4
2018-07-26T10:20:26.402Z,31.6
2018-07-26T10:21:17.370Z,31.7
2018-07-26T10:22:07.403Z,31.4
2018-07-26T10:22:57.174Z,31.7
2018-07-26T10:23:47.570Z,31.4
2018-07-26T10:24:37.602Z,31.6
2018-07-26T10:25:27.655Z,31.3
2018-07-26T10:26:17.147Z,30.9
2018-07-26T10:27:07.780Z,30.1
2018-07-26T10:27:57.791Z,30.1
2018-07-26T10:28:47.383Z,30.4
2018-07-26T10:29:37.677Z,30.9
2018-07-26T10:30:28.031Z,31.2
2018-07-26T10:31:17.883Z,31.3
2018-07-26T10:32:08.158Z,31.5
2018-07-26T10:32:58.255Z,31.8
2018-07-26T10:33:48.018Z,31.6
2018-07-26T10:34:38.331Z,31.9
2018-07-26T10:35:28.399Z,31.4
2018-07-26T10:36:18.034Z,31.2
2018-07-26T10:37:08.549Z,31.3
2018-07-26T10:37:58.607Z,31.4
2018-07-26T10:38:48.535Z,31.2
2018-07-26T10:39:38.724Z,31.3
2018-07-26T10:40:28.787Z,31.3
2018-07-26T10:41:18.670Z,31.8
2018-07-26T10:42:08.948Z,32.1
2018-07-26T10:42:58.989Z,32.4
2018-07-26T10:43:48.768Z,32.6
2018-07-26T10:44:39.735Z,32.8
2018-07-26T10:45:29.225Z,32.8
2018-07-26T10:46:18.973Z,33.1
2018-07-26T10:47:09.035Z,33
2018-07-26T10:47:59.132Z,32.1
2018-07-26T10:48:49.474Z,31.9
2018-07-26T10:49:39.308Z,31.2
2018-07-26T10:50:29.313Z,30.9
2018-07-26T10:51:19.360Z,30.6
2018-07-26T10:52:09.706Z,29.9
2018-07-26T10:52:59.520Z,29.9
2018-07-26T10:53:49.280Z,29.9
2018-07-26T10:54:39.932Z,29.9
2018-07-26T10:55:29.718Z,29.5
2018-07-26T10:56:19.752Z,29.8
2018-07-26T10:57:10.112Z,30.1
2018-07-26T10:57:59.622Z,30.1
2018-07-26T10:58:49.966Z,30.2
2018-07-26T10:59:40.034Z,30.1
2018-07-26T11:00:30.111Z,29.8
2018-07-26T11:01:20.165Z,29.8
2018-07-26T11:02:10.486Z,29.8
2018-07-26T11:03:00.547Z,29.9
2018-07-26T11:03:50.381Z,30
2018-07-26T11:04:40.682Z,29.9
2018-07-26T11:05:30.183Z,30
2018-07-26T11:06:20.266Z,30.3
2018-07-26T11:07:10.896Z,30.6
2018-07-26T11:08:00.923Z,30.9
2018-07-26T11:08:50.454Z,30.4
2018-07-26T11:09:41.515Z,29.8
2018-07-26T11:10:30.860Z,29.5
2018-07-26T11:11:20.660Z,29.4
2018-07-26T11:12:10.500Z,29.1
2018-07-26T11:13:00.774Z,28.9
2018-07-26T11:13:51.435Z,28.7
2018-07-26T11:14:41.208Z,28.8
2018-07-26T11:15:31.591Z,28.9
2018-07-26T11:16:21.594Z,29
2018-07-26T11:17:11.648Z,28.8
2018-07-26T11:18:01.445Z,29.3
2018-07-26T11:18:51.904Z,29.8
2018-07-26T11:19:41.853Z,29.8
2018-07-26T11:20:31.913Z,29.4
2018-07-26T11:21:21.975Z,29.1
2018-07-26T11:22:11.757Z,29.3
2018-07-26T11:23:02.114Z,29.4
2018-07-26T11:23:52.169Z,29.8
2018-07-26T11:24:41.701Z,30.3